sensor_id;sensor_type;location;lat;lon;timestamp;pressure;altitude;pressure_sealevel;temperature;humidity
21300;BME280;10809;49.476;11.016;2023-03-25T00:00:34;97547.28;;;9.68;64.42
21300;BME280;10809;49.476;11.016;2023-03-25T00:03:11;97542.09;;;9.67;64.79
21300;BME280;10809;49.476;11.016;2023-03-25T00:05:42;97539.56;;;9.65;64.18
21300;BME280;10809;49.476;11.016;2023-03-25T00:08:12;97541.44;;;9.63;64.42
21300;BME280;10809;49.476;11.016;2023-03-25T00:10:53;97545.97;;;9.61;64.52
21300;BME280;10809;49.476;11.016;2023-03-25T00:13:25;97543.50;;;9.58;64.54
21300;BME280;10809;49.476;11.016;2023-03-25T00:15:56;97526.06;;;9.55;64.39
21300;BME280;10809;49.476;11.016;2023-03-25T00:18:29;97541.16;;;9.53;64.42
21300;BME280;10809;49.476;11.016;2023-03-25T00:21:04;97537.78;;;9.51;64.51
21300;BME280;10809;49.476;11.016;2023-03-25T00:23:45;97538.81;;;9.49;64.68
21300;BME280;10809;49.476;11.016;2023-03-25T00:26:16;97536.28;;;9.47;64.60
21300;BME280;10809;49.476;11.016;2023-03-25T00:28:50;97530.25;;;9.45;64.77
21300;BME280;10809;49.476;11.016;2023-03-25T00:31:20;97530.34;;;9.44;65.00
21300;BME280;10809;49.476;11.016;2023-03-25T00:33:51;97526.00;;;9.43;64.71
21300;BME280;10809;49.476;11.016;2023-03-25T00:36:21;97524.41;;;9.40;64.68
21300;BME280;10809;49.476;11.016;2023-03-25T00:38:52;97521.88;;;9.39;65.17
21300;BME280;10809;49.476;11.016;2023-03-25T00:41:24;97513.19;;;9.37;64.46
21300;BME280;10809;49.476;11.016;2023-03-25T00:43:58;97517.72;;;9.35;64.94
21300;BME280;10809;49.476;11.016;2023-03-25T00:46:33;97506.41;;;9.33;64.70
21300;BME280;10809;49.476;11.016;2023-03-25T00:49:07;97503.00;;;9.31;64.92
21300;BME280;10809;49.476;11.016;2023-03-25T00:51:38;97509.25;;;9.30;64.80
21300;BME280;10809;49.476;11.016;2023-03-25T00:54:09;97506.78;;;9.27;64.49
21300;BME280;10809;49.476;11.016;2023-03-25T00:56:43;97524.50;;;9.25;64.50
21300;BME280;10809;49.476;11.016;2023-03-25T00:59:13;97542.25;;;9.23;64.85
21300;BME280;10809;49.476;11.016;2023-03-25T01:01:44;97538.78;;;9.22;64.76
21300;BME280;10809;49.476;11.016;2023-03-25T01:04:15;97531.88;;;9.20;64.77
21300;BME280;10809;49.476;11.016;2023-03-25T01:06:45;97489.72;;;9.18;64.97
21300;BME280;10809;49.476;11.016;2023-03-25T01:09:20;97491.72;;;9.15;64.77
21300;BME280;10809;49.476;11.016;2023-03-25T01:11:54;97499.94;;;9.10;64.90
21300;BME280;10809;49.476;11.016;2023-03-25T01:14:25;97508.22;;;9.04;65.01
21300;BME280;10809;49.476;11.016;2023-03-25T01:17:12;97509.53;;;8.97;64.91
21300;BME280;10809;49.476;11.016;2023-03-25T01:19:42;97509.91;;;8.91;65.29
21300;BME280;10809;49.476;11.016;2023-03-25T01:22:13;97505.88;;;8.86;64.95
21300;BME280;10809;49.476;11.016;2023-03-25T01:24:57;97511.53;;;8.80;64.97
21300;BME280;10809;49.476;11.016;2023-03-25T01:27:47;97507.47;;;8.74;64.98
21300;BME280;10809;49.476;11.016;2023-03-25T01:30:18;97508.50;;;8.72;65.08
21300;BME280;10809;49.476;11.016;2023-03-25T01:32:48;97520.19;;;8.68;65.12
21300;BME280;10809;49.476;11.016;2023-03-25T01:35:19;97511.59;;;8.64;65.45
21300;BME280;10809;49.476;11.016;2023-03-25T01:37:50;97512.63;;;8.62;65.44
21300;BME280;10809;49.476;11.016;2023-03-25T01:40:23;97507.53;;;8.59;65.33
21300;BME280;10809;49.476;11.016;2023-03-25T01:42:54;97502.44;;;8.56;65.41
21300;BME280;10809;49.476;11.016;2023-03-25T01:45:29;97502.53;;;8.54;65.26
21300;BME280;10809;49.476;11.016;2023-03-25T01:48:04;97493.84;;;8.52;65.29
21300;BME280;10809;49.476;11.016;2023-03-25T01:50:42;97499.31;;;8.49;65.20
21300;BME280;10809;49.476;11.016;2023-03-25T01:53:17;97500.34;;;8.47;65.06
21300;BME280;10809;49.476;11.016;2023-03-25T01:55:48;97494.31;;;8.45;65.32
21300;BME280;10809;49.476;11.016;2023-03-25T01:58:22;97488.28;;;8.43;65.65
21300;BME280;10809;49.476;11.016;2023-03-25T02:00:56;97491.84;;;8.42;65.16
21300;BME280;10809;49.476;11.016;2023-03-25T02:03:27;97485.72;;;8.41;65.55
21300;BME280;10809;49.476;11.016;2023-03-25T02:06:06;97491.94;;;8.40;65.33
21300;BME280;10809;49.476;11.016;2023-03-25T02:08:41;97485.91;;;8.38;65.41
21300;BME280;10809;49.476;11.016;2023-03-25T02:11:11;97486.84;;;8.37;65.17
21300;BME280;10809;49.476;11.016;2023-03-25T02:13:42;97474.63;;;8.36;65.14
21300;BME280;10809;49.476;11.016;2023-03-25T02:24:35;97481.00;;;8.32;65.34
21300;BME280;10809;49.476;11.016;2023-03-25T02:27:22;97481.09;;;8.31;65.14
21300;BME280;10809;49.476;11.016;2023-03-25T02:30:10;97484.69;;;8.30;65.11
21300;BME280;10809;49.476;11.016;2023-03-25T02:35:47;97487.50;;;8.27;64.90
21300;BME280;10809;49.476;11.016;2023-03-25T02:44:35;97485.22;;;8.21;64.77
21300;BME280;10809;49.476;11.016;2023-03-25T02:47:10;97493.22;;;8.19;64.82
21300;BME280;10809;49.476;11.016;2023-03-25T02:49:55;97503.88;;;8.18;64.43
21300;BME280;10809;49.476;11.016;2023-03-25T02:52:34;97494.31;;;8.15;64.91
21300;BME280;10809;49.476;11.016;2023-03-25T02:55:10;97494.50;;;8.12;64.61
21300;BME280;10809;49.476;11.016;2023-03-25T02:57:44;97500.72;;;8.11;64.45
21300;BME280;10809;49.476;11.016;2023-03-25T03:00:18;97498.19;;;8.10;64.50
21300;BME280;10809;49.476;11.016;2023-03-25T03:02:53;97500.91;;;8.08;64.64
21300;BME280;10809;49.476;11.016;2023-03-25T03:05:34;97486.88;;;8.08;64.79
21300;BME280;10809;49.476;11.016;2023-03-25T03:11:16;97488.84;;;8.04;64.51
21300;BME280;10809;49.476;11.016;2023-03-25T03:28:01;97499.84;;;7.97;64.70
21300;BME280;10809;49.476;11.016;2023-03-25T03:33:24;97493.63;;;7.98;64.88
21300;BME280;10809;49.476;11.016;2023-03-25T03:36:06;97485.72;;;7.98;64.84
21300;BME280;10809;49.476;11.016;2023-03-25T03:39:05;97494.50;;;7.98;64.57
21300;BME280;10809;49.476;11.016;2023-03-25T03:41:40;97497.03;;;8.00;64.78
21300;BME280;10809;49.476;11.016;2023-03-25T03:44:17;97495.22;;;8.00;64.50
21300;BME280;10809;49.476;11.016;2023-03-25T03:46:55;97504.00;;;8.01;64.79
21300;BME280;10809;49.476;11.016;2023-03-25T03:49:34;97496.94;;;8.01;64.48
21300;BME280;10809;49.476;11.016;2023-03-25T03:52:13;97495.13;;;8.02;64.75
21300;BME280;10809;49.476;11.016;2023-03-25T03:54:49;97499.41;;;8.04;64.64
21300;BME280;10809;49.476;11.016;2023-03-25T03:57:32;97495.03;;;8.03;64.83
21300;BME280;10809;49.476;11.016;2023-03-25T04:03:08;97497.59;;;8.05;64.93
21300;BME280;10809;49.476;11.016;2023-03-25T04:05:52;97505.50;;;8.05;64.57
21300;BME280;10809;49.476;11.016;2023-03-25T04:08:33;97511.63;;;8.05;65.00
21300;BME280;10809;49.476;11.016;2023-03-25T04:11:09;97523.97;;;8.05;64.97
21300;BME280;10809;49.476;11.016;2023-03-25T04:13:46;97531.88;;;8.05;65.21
21300;BME280;10809;49.476;11.016;2023-03-25T04:16:18;97546.75;;;8.06;65.13
21300;BME280;10809;49.476;11.016;2023-03-25T04:19:03;97539.03;;;8.03;65.29
21300;BME280;10809;49.476;11.016;2023-03-25T04:21:34;97536.47;;;8.01;65.17
21300;BME280;10809;49.476;11.016;2023-03-25T04:24:05;97531.38;;;7.98;65.46
21300;BME280;10809;49.476;11.016;2023-03-25T04:26:38;97520.16;;;7.95;65.46
21300;BME280;10809;49.476;11.016;2023-03-25T04:29:12;97526.56;;;7.91;65.35
21300;BME280;10809;49.476;11.016;2023-03-25T04:31:46;97524.09;;;7.88;65.41
21300;BME280;10809;49.476;11.016;2023-03-25T04:34:18;97528.78;;;7.82;65.56
21300;BME280;10809;49.476;11.016;2023-03-25T04:36:49;97529.03;;;7.78;65.55
21300;BME280;10809;49.476;11.016;2023-03-25T04:39:20;97540.66;;;7.74;65.38
21300;BME280;10809;49.476;11.016;2023-03-25T04:41:58;97537.38;;;7.70;65.64
21300;BME280;10809;49.476;11.016;2023-03-25T04:44:35;97526.06;;;7.68;65.63
21300;BME280;10809;49.476;11.016;2023-03-25T04:47:11;97517.47;;;7.65;65.51
21300;BME280;10809;49.476;11.016;2023-03-25T04:49:50;97508.06;;;7.61;65.76
21300;BME280;10809;49.476;11.016;2023-03-25T04:52:20;97507.28;;;7.59;65.78
21300;BME280;10809;49.476;11.016;2023-03-25T04:54:54;97523.19;;;7.57;65.84
21300;BME280;10809;49.476;11.016;2023-03-25T04:57:27;97526.84;;;7.55;65.67
21300;BME280;10809;49.476;11.016;2023-03-25T05:00:00;97543.69;;;7.52;65.72
21300;BME280;10809;49.476;11.016;2023-03-25T05:02:30;97533.31;;;7.49;65.21
21300;BME280;10809;49.476;11.016;2023-03-25T05:05:04;97536.13;;;7.46;65.23
21300;BME280;10809;49.476;11.016;2023-03-25T05:07:35;97547.66;;;7.44;65.04
21300;BME280;10809;49.476;11.016;2023-03-25T05:10:05;97548.69;;;7.41;64.99
21300;BME280;10809;49.476;11.016;2023-03-25T05:12:38;97555.81;;;7.39;65.08
21300;BME280;10809;49.476;11.016;2023-03-25T05:15:10;97558.59;;;7.36;64.80
21300;BME280;10809;49.476;11.016;2023-03-25T05:17:40;97571.84;;;7.35;65.09
21300;BME280;10809;49.476;11.016;2023-03-25T05:20:11;97572.81;;;7.34;64.98
21300;BME280;10809;49.476;11.016;2023-03-25T05:22:49;97573.84;;;7.31;64.91
21300;BME280;10809;49.476;11.016;2023-03-25T05:25:22;97573.91;;;7.30;64.88
21300;BME280;10809;49.476;11.016;2023-03-25T05:27:53;97573.91;;;7.30;64.64
21300;BME280;10809;49.476;11.016;2023-03-25T05:30:23;97578.31;;;7.29;64.86
21300;BME280;10809;49.476;11.016;2023-03-25T05:33:05;97572.19;;;7.29;64.85
21300;BME280;10809;49.476;11.016;2023-03-25T05:35:44;97586.31;;;7.28;64.39
21300;BME280;10809;49.476;11.016;2023-03-25T05:38:15;97588.00;;;7.29;64.62
21300;BME280;10809;49.476;11.016;2023-03-25T05:40:47;97585.44;;;7.27;64.79
21300;BME280;10809;49.476;11.016;2023-03-25T05:43:18;97587.25;;;7.27;64.58
21300;BME280;10809;49.476;11.016;2023-03-25T05:45:55;97585.44;;;7.27;64.79
21300;BME280;10809;49.476;11.016;2023-03-25T05:48:25;97597.78;;;7.27;64.35
21300;BME280;10809;49.476;11.016;2023-03-25T05:50:56;97618.75;;;7.28;64.82
21300;BME280;10809;49.476;11.016;2023-03-25T05:53:27;97612.53;;;7.29;64.68
21300;BME280;10809;49.476;11.016;2023-03-25T05:56:03;97616.03;;;7.30;64.39
21300;BME280;10809;49.476;11.016;2023-03-25T05:58:34;97620.44;;;7.29;64.24
21300;BME280;10809;49.476;11.016;2023-03-25T06:01:10;97624.75;;;7.30;64.39
21300;BME280;10809;49.476;11.016;2023-03-25T06:03:43;97631.66;;;7.33;64.69
21300;BME280;10809;49.476;11.016;2023-03-25T06:06:15;97632.50;;;7.33;64.19
21300;BME280;10809;49.476;11.016;2023-03-25T06:08:49;97629.88;;;7.33;64.53
21300;BME280;10809;49.476;11.016;2023-03-25T06:11:22;97633.38;;;7.34;64.26
21300;BME280;10809;49.476;11.016;2023-03-25T06:13:53;97643.91;;;7.34;64.27
21300;BME280;10809;49.476;11.016;2023-03-25T06:16:26;97636.00;;;7.34;64.50
21300;BME280;10809;49.476;11.016;2023-03-25T06:19:08;97642.13;;;7.34;64.27
21300;BME280;10809;49.476;11.016;2023-03-25T06:21:39;97640.31;;;7.35;64.40
21300;BME280;10809;49.476;11.016;2023-03-25T06:24:13;97640.25;;;7.36;64.19
21300;BME280;10809;49.476;11.016;2023-03-25T06:26:43;97637.53;;;7.38;64.34
21300;BME280;10809;49.476;11.016;2023-03-25T06:29:13;97638.38;;;7.38;64.38
21300;BME280;10809;49.476;11.016;2023-03-25T06:31:44;97639.16;;;7.40;64.33
21300;BME280;10809;49.476;11.016;2023-03-25T06:34:15;97646.13;;;7.41;64.25
21300;BME280;10809;49.476;11.016;2023-03-25T06:36:51;97632.09;;;7.41;64.13
21300;BME280;10809;49.476;11.016;2023-03-25T06:39:23;97630.31;;;7.41;64.23
21300;BME280;10809;49.476;11.016;2023-03-25T06:41:54;97644.25;;;7.43;64.20
21300;BME280;10809;49.476;11.016;2023-03-25T06:44:30;97631.00;;;7.45;64.17
21300;BME280;10809;49.476;11.016;2023-03-25T06:47:26;97631.75;;;7.47;64.02
21300;BME280;10809;49.476;11.016;2023-03-25T06:49:57;97633.41;;;7.49;63.87
21300;BME280;10809;49.476;11.016;2023-03-25T06:52:27;97634.06;;;7.53;63.94
21300;BME280;10809;49.476;11.016;2023-03-25T06:54:58;97636.53;;;7.56;63.87
21300;BME280;10809;49.476;11.016;2023-03-25T06:57:28;97636.34;;;7.59;64.03
21300;BME280;10809;49.476;11.016;2023-03-25T06:59:59;97645.81;;;7.63;63.99
21300;BME280;10809;49.476;11.016;2023-03-25T07:02:30;97632.41;;;7.67;64.00
21300;BME280;10809;49.476;11.016;2023-03-25T07:05:03;97627.88;;;7.69;63.63
21300;BME280;10809;49.476;11.016;2023-03-25T07:07:34;97643.41;;;7.74;63.56
21300;BME280;10809;49.476;11.016;2023-03-25T07:10:04;97637.16;;;7.76;64.00
21300;BME280;10809;49.476;11.016;2023-03-25T07:12:36;97639.53;;;7.81;63.67
21300;BME280;10809;49.476;11.016;2023-03-25T07:15:09;97647.19;;;7.86;63.46
21300;BME280;10809;49.476;11.016;2023-03-25T07:17:46;97641.75;;;7.89;63.50
21300;BME280;10809;49.476;11.016;2023-03-25T07:20:19;97643.25;;;7.93;63.94
21300;BME280;10809;49.476;11.016;2023-03-25T07:22:53;97637.66;;;7.99;64.08
21300;BME280;10809;49.476;11.016;2023-03-25T07:25:24;97639.94;;;8.05;63.51
21300;BME280;10809;49.476;11.016;2023-03-25T07:27:57;97641.41;;;8.10;63.22
21300;BME280;10809;49.476;11.016;2023-03-25T07:30:29;97629.75;;;8.14;63.32
21300;BME280;10809;49.476;11.016;2023-03-25T07:33:00;97641.06;;;8.16;63.16
21300;BME280;10809;49.476;11.016;2023-03-25T07:35:36;97644.44;;;8.18;63.35
21300;BME280;10809;49.476;11.016;2023-03-25T07:38:07;97657.53;;;8.20;62.89
21300;BME280;10809;49.476;11.016;2023-03-25T07:40:39;97647.84;;;8.20;62.65
21300;BME280;10809;49.476;11.016;2023-03-25T07:43:09;97651.34;;;8.21;62.78
21300;BME280;10809;49.476;11.016;2023-03-25T07:45:46;97653.03;;;8.22;62.81
21300;BME280;10809;49.476;11.016;2023-03-25T07:48:20;97659.00;;;8.25;63.01
21300;BME280;10809;49.476;11.016;2023-03-25T07:50:51;97648.09;;;8.31;63.23
21300;BME280;10809;49.476;11.016;2023-03-25T07:53:22;97645.78;;;8.41;63.96
21300;BME280;10809;49.476;11.016;2023-03-25T07:55:52;97649.31;;;8.55;64.20
21300;BME280;10809;49.476;11.016;2023-03-25T07:58:23;97639.78;;;8.68;63.50
21300;BME280;10809;49.476;11.016;2023-03-25T08:00:55;97655.94;;;8.78;62.77
21300;BME280;10809;49.476;11.016;2023-03-25T08:03:26;97645.78;;;8.86;62.84
21300;BME280;10809;49.476;11.016;2023-03-25T08:06:01;97641.09;;;8.91;62.31
21300;BME280;10809;49.476;11.016;2023-03-25T08:08:32;97656.56;;;8.97;62.68
21300;BME280;10809;49.476;11.016;2023-03-25T08:11:02;97655.25;;;9.04;63.00
21300;BME280;10809;49.476;11.016;2023-03-25T08:13:33;97643.34;;;9.11;62.45
21300;BME280;10809;49.476;11.016;2023-03-25T08:16:11;97645.53;;;9.18;62.91
21300;BME280;10809;49.476;11.016;2023-03-25T08:18:42;97649.25;;;9.30;63.02
21300;BME280;10809;49.476;11.016;2023-03-25T08:21:14;97651.91;;;9.44;62.97
21300;BME280;10809;49.476;11.016;2023-03-25T08:23:45;97652.06;;;9.55;62.13
21300;BME280;10809;49.476;11.016;2023-03-25T08:26:19;97658.59;;;9.64;61.92
21300;BME280;10809;49.476;11.016;2023-03-25T08:28:50;97633.75;;;9.66;60.87
21300;BME280;10809;49.476;11.016;2023-03-25T08:31:25;97640.00;;;9.65;60.31
21300;BME280;10809;49.476;11.016;2023-03-25T08:33:56;97641.78;;;9.65;60.79
21300;BME280;10809;49.476;11.016;2023-03-25T08:36:30;97650.91;;;9.73;61.46
21300;BME280;10809;49.476;11.016;2023-03-25T08:39:10;97639.50;;;9.87;61.63
21300;BME280;10809;49.476;11.016;2023-03-25T08:41:44;97646.59;;;10.00;61.23
21300;BME280;10809;49.476;11.016;2023-03-25T08:44:14;97646.72;;;10.11;60.93
21300;BME280;10809;49.476;11.016;2023-03-25T08:46:45;97650.69;;;10.18;60.00
21300;BME280;10809;49.476;11.016;2023-03-25T08:49:15;97634.41;;;10.24;59.76
21300;BME280;10809;49.476;11.016;2023-03-25T08:51:46;97643.94;;;10.27;59.15
21300;BME280;10809;49.476;11.016;2023-03-25T08:54:23;97634.22;;;10.27;59.21
21300;BME280;10809;49.476;11.016;2023-03-25T08:56:55;97631.47;;;10.29;58.95
21300;BME280;10809;49.476;11.016;2023-03-25T08:59:25;97629.56;;;10.31;59.79
21300;BME280;10809;49.476;11.016;2023-03-25T09:01:56;97628.13;;;10.39;59.99
21300;BME280;10809;49.476;11.016;2023-03-25T09:04:27;97626.56;;;10.49;60.11
21300;BME280;10809;49.476;11.016;2023-03-25T09:07:00;97633.59;;;10.63;59.90
21300;BME280;10809;49.476;11.016;2023-03-25T09:09:31;97615.94;;;10.76;60.30
21300;BME280;10809;49.476;11.016;2023-03-25T09:12:01;97611.28;;;10.92;59.92
21300;BME280;10809;49.476;11.016;2023-03-25T09:14:32;97629.53;;;11.09;60.20
21300;BME280;10809;49.476;11.016;2023-03-25T09:17:05;97610.72;;;11.26;59.77
21300;BME280;10809;49.476;11.016;2023-03-25T09:19:36;97609.75;;;11.40;58.51
21300;BME280;10809;49.476;11.016;2023-03-25T09:22:16;97608.16;;;11.50;58.35
21300;BME280;10809;49.476;11.016;2023-03-25T09:24:46;97602.31;;;11.57;58.39
21300;BME280;10809;49.476;11.016;2023-03-25T09:27:20;97597.97;;;11.69;58.38
21300;BME280;10809;49.476;11.016;2023-03-25T09:29:50;97596.00;;;11.83;58.77
21300;BME280;10809;49.476;11.016;2023-03-25T09:32:21;97604.03;;;11.94;57.37
21300;BME280;10809;49.476;11.016;2023-03-25T09:34:51;97610.59;;;12.01;56.67
21300;BME280;10809;49.476;11.016;2023-03-25T09:37:22;97601.56;;;12.04;55.50
21300;BME280;10809;49.476;11.016;2023-03-25T09:39:52;97597.31;;;12.01;55.45
21300;BME280;10809;49.476;11.016;2023-03-25T09:50:50;97599.41;;;11.85;55.29
21300;BME280;10809;49.476;11.016;2023-03-25T09:56:20;97599.50;;;11.84;54.88
21300;BME280;10809;49.476;11.016;2023-03-25T09:58:59;97608.41;;;11.83;55.30
21300;BME280;10809;49.476;11.016;2023-03-25T10:04:44;97589.63;;;11.86;54.64
21300;BME280;10809;49.476;11.016;2023-03-25T10:13:09;97577.81;;;12.02;54.63
21300;BME280;10809;49.476;11.016;2023-03-25T10:21:20;97575.66;;;12.31;54.95
21300;BME280;10809;49.476;11.016;2023-03-25T10:35:24;97574.81;;;12.30;53.68
21300;BME280;10809;49.476;11.016;2023-03-25T10:38:05;97587.19;;;12.19;53.34
21300;BME280;10809;49.476;11.016;2023-03-25T10:40:38;97579.50;;;12.03;53.29
21300;BME280;10809;49.476;11.016;2023-03-25T10:48:39;97572.75;;;11.51;53.91
21300;BME280;10809;49.476;11.016;2023-03-25T10:51:16;97566.81;;;11.35;54.00
21300;BME280;10809;49.476;11.016;2023-03-25T10:53:48;97559.69;;;11.22;54.43
21300;BME280;10809;49.476;11.016;2023-03-25T10:56:29;97551.66;;;11.11;54.98
21300;BME280;10809;49.476;11.016;2023-03-25T10:59:39;97547.63;;;11.06;55.69
21300;BME280;10809;49.476;11.016;2023-03-25T11:02:18;97548.72;;;11.03;55.73
21300;BME280;10809;49.476;11.016;2023-03-25T11:04:52;97556.88;;;11.00;54.83
21300;BME280;10809;49.476;11.016;2023-03-25T11:07:49;97600.50;;;10.95;55.50
21300;BME280;10809;49.476;11.016;2023-03-25T11:10:25;97594.66;;;10.77;55.90
21300;BME280;10809;49.476;11.016;2023-03-25T11:12:57;97604.16;;;10.55;56.09
21300;BME280;10809;49.476;11.016;2023-03-25T11:15:37;97623.84;;;10.24;56.37
21300;BME280;10809;49.476;11.016;2023-03-25T11:20:55;97657.72;;;9.63;57.18
21300;BME280;10809;49.476;11.016;2023-03-25T11:23:33;97649.06;;;9.33;57.69
21300;BME280;10809;49.476;11.016;2023-03-25T11:29:01;97629.72;;;8.75;58.65
21300;BME280;10809;49.476;11.016;2023-03-25T11:31:35;97627.34;;;8.55;59.53
21300;BME280;10809;49.476;11.016;2023-03-25T11:39:37;97602.56;;;8.43;63.11
21300;BME280;10809;49.476;11.016;2023-03-25T11:44:59;97576.53;;;8.67;64.27
21300;BME280;10809;49.476;11.016;2023-03-25T11:47:33;97558.84;;;8.83;64.64
21300;BME280;10809;49.476;11.016;2023-03-25T11:50:05;97559.69;;;8.97;64.75
21300;BME280;10809;49.476;11.016;2023-03-25T11:52:52;97559.44;;;9.16;64.33
21300;BME280;10809;49.476;11.016;2023-03-25T11:55:27;97556.69;;;9.31;64.34
21300;BME280;10809;49.476;11.016;2023-03-25T11:57:59;97563.75;;;9.45;64.52
21300;BME280;10809;49.476;11.016;2023-03-25T12:00:39;97560.22;;;9.58;63.91
21300;BME280;10809;49.476;11.016;2023-03-25T12:05:41;97549.44;;;9.76;63.59
21300;BME280;10809;49.476;11.016;2023-03-25T12:08:16;97543.66;;;9.83;63.64
21300;BME280;10809;49.476;11.016;2023-03-25T12:11:10;97538.44;;;9.96;63.12
21300;BME280;10809;49.476;11.016;2023-03-25T12:16:43;97531.75;;;10.17;63.72
21300;BME280;10809;49.476;11.016;2023-03-25T12:28:02;97505.56;;;10.51;62.36
21300;BME280;10809;49.476;11.016;2023-03-25T12:36:25;97486.00;;;10.79;62.55
21300;BME280;10809;49.476;11.016;2023-03-25T12:39:14;97482.50;;;10.91;61.62
21300;BME280;10809;49.476;11.016;2023-03-25T12:42:16;97492.31;;;11.01;61.17
21300;BME280;10809;49.476;11.016;2023-03-25T12:45:17;97497.72;;;11.12;60.99
21300;BME280;10809;49.476;11.016;2023-03-25T12:51:08;97501.34;;;11.24;59.96
21300;BME280;10809;49.476;11.016;2023-03-25T12:54:07;97499.44;;;11.26;59.86
21300;BME280;10809;49.476;11.016;2023-03-25T12:56:47;97508.72;;;11.32;59.81
21300;BME280;10809;49.476;11.016;2023-03-25T12:59:44;97486.34;;;11.36;59.64
21300;BME280;10809;49.476;11.016;2023-03-25T13:02:40;97492.06;;;11.42;59.52
21300;BME280;10809;49.476;11.016;2023-03-25T13:05:21;97489.19;;;11.45;58.96
21300;BME280;10809;49.476;11.016;2023-03-25T13:11:08;97515.09;;;11.42;57.95
21300;BME280;10809;49.476;11.016;2023-03-25T13:14:03;97506.09;;;11.32;58.58
21300;BME280;10809;49.476;11.016;2023-03-25T13:16:38;97544.00;;;11.19;57.97
21300;BME280;10809;49.476;11.016;2023-03-25T13:19:19;97534.50;;;11.04;58.49
21300;BME280;10809;49.476;11.016;2023-03-25T13:21:58;97530.25;;;10.89;58.34
21300;BME280;10809;49.476;11.016;2023-03-25T13:24:54;97520.63;;;10.76;58.53
21300;BME280;10809;49.476;11.016;2023-03-25T13:27:32;97532.88;;;10.64;58.61
21300;BME280;10809;49.476;11.016;2023-03-25T13:30:04;97536.16;;;10.55;58.68
21300;BME280;10809;49.476;11.016;2023-03-25T13:32:48;97552.56;;;10.48;58.92
21300;BME280;10809;49.476;11.016;2023-03-25T13:35:43;97551.28;;;10.41;59.20
21300;BME280;10809;49.476;11.016;2023-03-25T13:38:28;97564.94;;;10.35;58.90
21300;BME280;10809;49.476;11.016;2023-03-25T13:41:15;97540.88;;;10.25;58.66
21300;BME280;10809;49.476;11.016;2023-03-25T13:46:41;97531.41;;;10.09;59.26
21300;BME280;10809;49.476;11.016;2023-03-25T13:49:33;97522.28;;;10.00;59.61
21300;BME280;10809;49.476;11.016;2023-03-25T13:52:06;97514.44;;;9.99;59.89
21300;BME280;10809;49.476;11.016;2023-03-25T13:54:51;97511.50;;;10.03;60.74
21300;BME280;10809;49.476;11.016;2023-03-25T14:01:00;97510.59;;;10.29;60.77
21300;BME280;10809;49.476;11.016;2023-03-25T14:12:46;97547.97;;;10.37;58.85
21300;BME280;10809;49.476;11.016;2023-03-25T14:15:32;97542.97;;;10.20;58.49
21300;BME280;10809;49.476;11.016;2023-03-25T14:18:15;97511.63;;;10.02;58.22
21300;BME280;10809;49.476;11.016;2023-03-25T14:20:50;97524.19;;;9.84;58.61
21300;BME280;10809;49.476;11.016;2023-03-25T14:23:21;97519.81;;;9.71;58.82
21300;BME280;10809;49.476;11.016;2023-03-25T14:26:07;97521.25;;;9.62;59.93
21300;BME280;10809;49.476;11.016;2023-03-25T14:28:43;97519.53;;;9.61;60.23
21300;BME280;10809;49.476;11.016;2023-03-25T14:44:48;97513.44;;;10.14;61.18
21300;BME280;10809;49.476;11.016;2023-03-25T14:47:28;97518.75;;;10.26;61.07
21300;BME280;10809;49.476;11.016;2023-03-25T14:50:30;97522.47;;;10.36;60.36
21300;BME280;10809;49.476;11.016;2023-03-25T14:53:09;97516.78;;;10.42;60.16
21300;BME280;10809;49.476;11.016;2023-03-25T14:55:44;97519.00;;;10.48;59.91
21300;BME280;10809;49.476;11.016;2023-03-25T14:58:28;97519.34;;;10.56;60.11
21300;BME280;10809;49.476;11.016;2023-03-25T15:01:05;97512.56;;;10.65;59.77
21300;BME280;10809;49.476;11.016;2023-03-25T15:03:38;97515.66;;;10.71;59.51
21300;BME280;10809;49.476;11.016;2023-03-25T15:06:14;97510.75;;;10.78;59.40
21300;BME280;10809;49.476;11.016;2023-03-25T15:08:54;97504.31;;;10.82;59.08
21300;BME280;10809;49.476;11.016;2023-03-25T15:11:32;97508.44;;;10.86;58.95
21300;BME280;10809;49.476;11.016;2023-03-25T15:14:06;97513.41;;;10.90;58.40
21300;BME280;10809;49.476;11.016;2023-03-25T15:20:12;97518.94;;;11.00;58.36
21300;BME280;10809;49.476;11.016;2023-03-25T15:26:02;97507.56;;;10.98;57.52
21300;BME280;10809;49.476;11.016;2023-03-25T15:40:13;97522.66;;;10.97;56.90
21300;BME280;10809;49.476;11.016;2023-03-25T15:45:57;97514.88;;;11.07;57.37
21300;BME280;10809;49.476;11.016;2023-03-25T15:51:13;97516.78;;;11.17;57.06
21300;BME280;10809;49.476;11.016;2023-03-25T15:56:44;97516.16;;;11.26;56.98
21300;BME280;10809;49.476;11.016;2023-03-25T15:59:42;97519.44;;;11.30;56.60
21300;BME280;10809;49.476;11.016;2023-03-25T16:05:12;97519.97;;;11.35;56.14
21300;BME280;10809;49.476;11.016;2023-03-25T16:07:43;97512.75;;;11.37;55.86
21300;BME280;10809;49.476;11.016;2023-03-25T16:10:30;97502.88;;;11.39;56.25
21300;BME280;10809;49.476;11.016;2023-03-25T16:13:06;97505.31;;;11.42;55.61
21300;BME280;10809;49.476;11.016;2023-03-25T16:15:39;97496.44;;;11.43;55.54
21300;BME280;10809;49.476;11.016;2023-03-25T16:18:13;97500.75;;;11.44;55.30
21300;BME280;10809;49.476;11.016;2023-03-25T16:20:45;97506.81;;;11.46;55.06
21300;BME280;10809;49.476;11.016;2023-03-25T16:23:18;97498.63;;;11.49;55.41
21300;BME280;10809;49.476;11.016;2023-03-25T16:25:50;97502.84;;;11.52;54.66
21300;BME280;10809;49.476;11.016;2023-03-25T16:28:30;97504.66;;;11.51;54.96
21300;BME280;10809;49.476;11.016;2023-03-25T16:31:01;97507.41;;;11.50;54.10
21300;BME280;10809;49.476;11.016;2023-03-25T16:33:37;97507.63;;;11.47;54.95
21300;BME280;10809;49.476;11.016;2023-03-25T16:36:23;97515.81;;;11.44;54.47
21300;BME280;10809;49.476;11.016;2023-03-25T16:38:56;97510.00;;;11.39;54.21
21300;BME280;10809;49.476;11.016;2023-03-25T16:41:30;97508.50;;;11.35;54.61
21300;BME280;10809;49.476;11.016;2023-03-25T16:44:00;97513.19;;;11.31;54.23